createdAt,value
2018-09-24T00:01:59.429Z,2.40
2018-09-24T00:04:27.886Z,2.00
2018-09-24T00:06:56.325Z,2.03
2018-09-24T00:09:24.763Z,2.17
2018-09-24T00:11:53.180Z,2.10
2018-09-24T00:14:21.614Z,2.03
2018-09-24T00:16:50.069Z,2.10
2018-09-24T00:19:18.527Z,1.90
2018-09-24T00:21:46.988Z,2.50
2018-09-24T00:24:15.434Z,2.87
2018-09-24T00:26:43.847Z,2.60
2018-09-24T00:29:12.324Z,2.70
2018-09-24T00:31:40.757Z,2.03
2018-09-24T00:34:09.185Z,2.17
2018-09-24T00:36:37.616Z,1.80
2018-09-24T00:39:08.477Z,2.20
2018-09-24T00:41:37.257Z,2.07
2018-09-24T00:44:05.855Z,2.00
2018-09-24T00:46:34.336Z,2.00
2018-09-24T00:49:02.823Z,2.07
2018-09-24T00:51:31.331Z,2.03
2018-09-24T00:53:59.855Z,2.23
2018-09-24T00:56:28.429Z,2.20
2018-09-24T00:58:56.872Z,1.93
2018-09-24T01:01:25.319Z,1.80
2018-09-24T01:03:53.750Z,2.17
2018-09-24T01:06:22.199Z,1.70
2018-09-24T01:08:50.633Z,2.00
2018-09-24T01:11:19.049Z,2.27
2018-09-24T01:13:47.471Z,2.10
2018-09-24T01:16:15.910Z,2.40
2018-09-24T01:18:44.306Z,1.97
2018-09-24T01:21:12.772Z,2.03
2018-09-24T01:23:41.232Z,2.13
2018-09-24T01:26:09.676Z,2.27
2018-09-24T01:28:38.127Z,2.00
2018-09-24T01:31:06.797Z,1.97
2018-09-24T01:33:35.240Z,1.60
2018-09-24T01:36:03.699Z,1.60
2018-09-24T01:38:32.104Z,2.00
2018-09-24T01:41:00.517Z,1.93
2018-09-24T01:43:28.970Z,1.73
2018-09-24T01:45:57.400Z,1.77
2018-09-24T01:48:25.823Z,1.90
2018-09-24T01:50:54.321Z,1.63
2018-09-24T01:53:22.818Z,1.80
2018-09-24T01:55:52.324Z,2.57
2018-09-24T01:58:20.972Z,1.43
2018-09-24T02:00:49.420Z,1.60
2018-09-24T02:03:18.000Z,2.03
2018-09-24T02:05:46.542Z,1.90
2018-09-24T02:08:15.021Z,1.37
2018-09-24T02:10:44.233Z,1.77
2018-09-24T02:13:12.661Z,1.60
2018-09-24T02:15:41.412Z,1.47
2018-09-24T02:18:11.043Z,2.00
2018-09-24T02:20:46.986Z,1.67
2018-09-24T02:23:16.301Z,1.90
2018-09-24T02:25:44.826Z,1.70
2018-09-24T02:28:13.411Z,2.30
2018-09-24T02:30:41.917Z,1.90
2018-09-24T02:33:12.210Z,1.37
2018-09-24T02:35:48.458Z,1.90
2018-09-24T02:38:17.512Z,1.70
2018-09-24T02:40:45.982Z,2.23
2018-09-24T02:43:15.399Z,1.60
2018-09-24T02:45:44.115Z,1.63
2018-09-24T02:48:13.080Z,1.67
2018-09-24T02:50:41.821Z,1.70
2018-09-24T02:53:10.454Z,2.47
2018-09-24T02:55:39.439Z,1.77
2018-09-24T02:58:08.535Z,2.30
2018-09-24T03:00:37.175Z,1.97
2018-09-24T03:03:10.193Z,1.60
2018-09-24T03:05:38.688Z,1.47
2018-09-24T03:08:09.373Z,2.17
2018-09-24T03:10:38.519Z,1.70
2018-09-24T03:13:07.324Z,1.60
2018-09-24T03:15:38.474Z,1.90
2018-09-24T03:18:07.748Z,2.00
2018-09-24T03:20:38.684Z,1.60
2018-09-24T03:23:07.488Z,2.03
2018-09-24T03:25:36.054Z,2.20
2018-09-24T03:28:04.789Z,2.23
2018-09-24T03:30:36.565Z,2.00
2018-09-24T03:33:05.081Z,1.70
2018-09-24T03:35:33.994Z,1.73
2018-09-24T03:38:02.481Z,1.40
2018-09-24T03:40:31.287Z,1.33
2018-09-24T03:42:59.956Z,2.73
2018-09-24T03:45:29.282Z,1.47
2018-09-24T03:47:57.782Z,1.57
2018-09-24T03:50:26.303Z,1.70
2018-09-24T03:52:54.771Z,1.30
2018-09-24T03:55:23.228Z,1.47
2018-09-24T03:57:51.641Z,1.50
2018-09-24T04:00:20.088Z,1.43
2018-09-24T04:02:48.541Z,1.37
2018-09-24T04:05:22.269Z,1.50
2018-09-24T04:07:56.103Z,1.87
2018-09-24T04:10:29.970Z,1.37
2018-09-24T04:13:03.774Z,1.13
2018-09-24T04:15:37.961Z,1.83
2018-09-24T04:18:11.548Z,1.43
2018-09-24T04:20:45.304Z,1.47
2018-09-24T04:23:19.093Z,1.40
2018-09-24T04:25:52.869Z,1.20
2018-09-24T04:28:26.581Z,1.20
2018-09-24T04:31:00.333Z,1.23
2018-09-24T04:33:34.143Z,1.63
2018-09-24T04:36:07.945Z,1.40
2018-09-24T04:38:41.727Z,1.17
2018-09-24T04:41:15.546Z,1.13
2018-09-24T04:43:49.235Z,1.30
2018-09-24T04:46:23.057Z,1.53
2018-09-24T04:48:56.810Z,1.10
2018-09-24T04:51:30.449Z,1.50
2018-09-24T04:54:04.085Z,1.90
2018-09-24T04:56:37.921Z,1.50
2018-09-24T04:59:11.934Z,1.40
2018-09-24T05:01:45.734Z,1.43
2018-09-24T05:04:19.437Z,1.50
2018-09-24T05:06:53.149Z,1.73
2018-09-24T05:09:26.902Z,1.57
2018-09-24T05:12:00.585Z,1.40
2018-09-24T05:14:34.278Z,1.40
2018-09-24T05:17:08.161Z,1.40
2018-09-24T05:19:41.852Z,1.43
2018-09-24T05:22:15.729Z,1.40
2018-09-24T05:24:49.700Z,1.47
2018-09-24T05:27:23.583Z,1.90
2018-09-24T05:29:57.367Z,1.40
2018-09-24T05:32:31.259Z,1.07
2018-09-24T05:35:05.030Z,1.70
2018-09-24T05:37:38.886Z,1.57
2018-09-24T05:40:12.885Z,1.73
2018-09-24T05:42:46.837Z,1.30
2018-09-24T05:45:20.676Z,1.70
2018-09-24T05:47:54.427Z,1.83
2018-09-24T05:50:28.025Z,2.00
2018-09-24T05:53:01.957Z,1.80
2018-09-24T05:55:35.766Z,1.40
2018-09-24T05:58:09.464Z,1.70
2018-09-24T06:00:43.221Z,1.60
2018-09-24T06:03:17.069Z,1.70
2018-09-24T06:05:50.853Z,1.73
2018-09-24T06:08:24.659Z,2.00
2018-09-24T06:10:58.455Z,1.50
2018-09-24T06:13:32.197Z,1.47
2018-09-24T06:16:05.812Z,1.70
2018-09-24T06:18:39.605Z,1.93
2018-09-24T06:21:13.403Z,2.03
2018-09-24T06:23:47.142Z,1.40
2018-09-24T06:26:20.974Z,2.47
2018-09-24T06:28:54.689Z,1.70
2018-09-24T06:31:28.376Z,2.13
2018-09-24T06:34:02.246Z,1.80
2018-09-24T06:36:35.959Z,1.40
2018-09-24T06:39:10.809Z,1.40
2018-09-24T06:41:44.628Z,2.07
2018-09-24T06:44:18.264Z,2.13
2018-09-24T06:46:52.038Z,1.87
2018-09-24T06:49:25.898Z,2.20
2018-09-24T06:51:59.674Z,2.00
2018-09-24T06:54:33.500Z,1.93
2018-09-24T06:57:07.172Z,1.73
2018-09-24T06:59:41.007Z,1.80
2018-09-24T07:02:14.810Z,2.10
2018-09-24T07:04:48.514Z,1.93
2018-09-24T07:07:22.325Z,1.87
2018-09-24T07:09:56.249Z,1.63
2018-09-24T07:12:29.934Z,1.80
2018-09-24T07:15:03.714Z,1.80
2018-09-24T07:17:37.481Z,1.60
2018-09-24T07:20:11.434Z,2.20
2018-09-24T07:22:45.318Z,1.70
2018-09-24T07:25:19.067Z,1.80
2018-09-24T07:27:52.854Z,2.00
2018-09-24T07:30:26.696Z,1.90
2018-09-24T07:33:00.432Z,2.10
2018-09-24T07:35:34.194Z,2.27
2018-09-24T07:38:07.999Z,1.93
2018-09-24T07:40:41.963Z,1.73
2018-09-24T07:43:16.088Z,2.13
2018-09-24T07:45:49.927Z,1.70
2018-09-24T07:48:23.642Z,1.80
2018-09-24T07:50:57.461Z,1.83
2018-09-24T07:53:31.193Z,1.57
2018-09-24T07:56:05.149Z,2.07
2018-09-24T07:58:38.994Z,1.83
2018-09-24T08:01:12.760Z,1.70
2018-09-24T08:03:46.486Z,1.87
2018-09-24T08:06:20.352Z,1.83
2018-09-24T08:08:54.178Z,2.73
2018-09-24T08:11:27.900Z,1.63
2018-09-24T08:14:08.941Z,1.97
2018-09-24T08:16:42.813Z,1.93
2018-09-24T08:19:16.570Z,2.07
2018-09-24T08:21:50.406Z,1.70
2018-09-24T08:24:24.169Z,1.90
2018-09-24T08:26:57.918Z,1.60
2018-09-24T08:29:31.626Z,1.80
2018-09-24T08:32:05.408Z,1.60
2018-09-24T08:34:39.321Z,1.47
2018-09-24T08:37:13.214Z,1.60
2018-09-24T08:39:47.141Z,1.50
2018-09-24T08:42:20.993Z,1.20
2018-09-24T08:44:54.779Z,1.57
2018-09-24T08:47:28.640Z,1.70
2018-09-24T08:50:02.405Z,1.57
2018-09-24T08:52:36.168Z,1.07
2018-09-24T08:55:09.950Z,1.60
2018-09-24T08:57:43.700Z,1.23
2018-09-24T09:00:17.436Z,1.27
2018-09-24T09:02:51.374Z,1.40
2018-09-24T09:05:24.961Z,1.20
2018-09-24T09:07:58.814Z,1.27
2018-09-24T09:10:32.524Z,1.30
2018-09-24T09:13:06.233Z,1.33
2018-09-24T09:15:40.128Z,1.30
2018-09-24T09:18:13.905Z,1.43
2018-09-24T09:20:47.789Z,1.37
2018-09-24T09:23:21.673Z,1.40
2018-09-24T09:25:55.484Z,1.10
2018-09-24T09:28:29.273Z,1.10
2018-09-24T09:31:03.126Z,1.20
2018-09-24T09:33:36.910Z,0.90
2018-09-24T09:36:10.675Z,1.17
2018-09-24T09:38:44.509Z,1.20
2018-09-24T09:41:18.409Z,0.93
2018-09-24T09:43:52.260Z,1.60
2018-09-24T09:46:25.985Z,1.17
2018-09-24T09:48:59.703Z,1.27
2018-09-24T09:51:33.446Z,1.03
2018-09-24T09:54:07.162Z,1.00
2018-09-24T09:56:40.979Z,1.07
2018-09-24T09:59:14.622Z,1.70
2018-09-24T10:01:48.559Z,1.37
2018-09-24T10:04:22.332Z,1.00
2018-09-24T10:06:56.061Z,1.20
2018-09-24T10:09:29.864Z,1.10
2018-09-24T10:12:03.701Z,1.10
2018-09-24T10:14:37.472Z,1.20
2018-09-24T10:17:11.425Z,0.80
2018-09-24T10:19:46.053Z,1.13
2018-09-24T10:22:19.905Z,1.07
2018-09-24T10:24:53.708Z,1.13
2018-09-24T10:27:27.453Z,1.40
2018-09-24T10:30:01.360Z,1.10
2018-09-24T10:32:35.153Z,1.20
2018-09-24T10:35:08.961Z,1.43
2018-09-24T10:37:42.849Z,1.03
2018-09-24T10:40:16.654Z,0.90
2018-09-24T10:42:50.461Z,0.97
2018-09-24T10:45:24.970Z,0.80
2018-09-24T10:47:58.935Z,1.10
2018-09-24T10:50:32.735Z,2.27
2018-09-24T10:53:06.511Z,1.23
2018-09-24T10:55:41.116Z,1.20
2018-09-24T10:58:14.951Z,1.67
2018-09-24T11:00:48.653Z,0.97
2018-09-24T11:03:22.397Z,1.50
2018-09-24T11:05:56.143Z,1.03
2018-09-24T11:08:29.825Z,1.30
2018-09-24T11:11:03.628Z,1.07
2018-09-24T11:13:37.499Z,1.50
2018-09-24T11:16:11.593Z,1.07
2018-09-24T11:18:45.388Z,0.80
2018-09-24T11:21:19.096Z,2.03
2018-09-24T11:23:52.964Z,1.07
2018-09-24T11:26:33.700Z,1.90
2018-09-24T11:29:00.607Z,1.67
2018-09-24T11:31:34.368Z,2.00
2018-09-24T11:34:09.134Z,2.10
2018-09-24T11:36:42.957Z,2.07
2018-09-24T11:39:16.805Z,2.13
2018-09-24T11:41:51.556Z,1.73
2018-09-24T11:44:25.589Z,2.30
2018-09-24T11:46:59.852Z,1.10
2018-09-24T11:49:34.910Z,1.20
2018-09-24T11:52:08.814Z,1.90
2018-09-24T11:54:42.637Z,1.10
2018-09-24T11:57:16.377Z,1.37
2018-09-24T11:59:50.153Z,1.20
2018-09-24T12:02:25.110Z,1.10
2018-09-24T12:04:59.955Z,1.17
2018-09-24T12:07:33.664Z,1.23
2018-09-24T12:10:07.461Z,1.40
2018-09-24T12:12:41.199Z,1.43
2018-09-24T12:15:14.926Z,1.90
2018-09-24T12:17:48.755Z,1.70
2018-09-24T12:20:22.357Z,1.60
2018-09-24T12:22:56.046Z,1.20
2018-09-24T12:25:29.776Z,1.57
2018-09-24T12:28:03.447Z,1.40
2018-09-24T12:30:37.167Z,1.40
2018-09-24T12:33:10.884Z,1.33
2018-09-24T12:35:44.700Z,1.60
2018-09-24T12:38:18.452Z,1.23
2018-09-24T12:40:52.234Z,1.50
2018-09-24T12:43:25.923Z,1.30
2018-09-24T12:45:59.850Z,1.50
2018-09-24T12:48:33.681Z,1.87
2018-09-24T12:51:07.388Z,0.90
2018-09-24T12:53:41.110Z,1.37
2018-09-24T12:56:14.697Z,1.27
2018-09-24T12:58:48.409Z,1.47
2018-09-24T13:01:22.304Z,1.57
2018-09-24T13:03:55.978Z,1.10
2018-09-24T13:06:29.760Z,1.57
2018-09-24T13:09:03.499Z,1.30
2018-09-24T13:11:37.412Z,1.10
2018-09-24T13:14:11.321Z,1.10
2018-09-24T13:16:45.143Z,1.30
2018-09-24T13:19:18.932Z,1.47
2018-09-24T13:21:52.734Z,1.27
2018-09-24T13:24:26.649Z,1.47
2018-09-24T13:27:00.489Z,1.43
2018-09-24T13:29:34.172Z,1.80
2018-09-24T13:32:07.906Z,1.67
2018-09-24T13:34:41.805Z,1.87
2018-09-24T13:37:15.533Z,1.60
2018-09-24T13:39:49.325Z,2.23
2018-09-24T13:42:22.988Z,1.67
2018-09-24T13:44:56.889Z,2.20
2018-09-24T13:47:30.693Z,2.07
2018-09-24T13:50:04.509Z,1.30
2018-09-24T13:52:38.204Z,1.20
2018-09-24T13:55:12.357Z,1.23
2018-09-24T13:57:45.990Z,1.43
2018-09-24T14:00:19.975Z,1.30
2018-09-24T14:02:53.860Z,1.30
2018-09-24T14:05:27.451Z,1.50
2018-09-24T14:08:01.091Z,1.40
2018-09-24T14:10:34.809Z,1.40
2018-09-24T14:13:08.607Z,1.73
2018-09-24T14:15:42.325Z,1.70
2018-09-24T14:18:16.143Z,1.50
2018-09-24T14:20:50.024Z,1.90
2018-09-24T14:23:23.840Z,1.63
2018-09-24T14:25:57.567Z,1.40
2018-09-24T14:28:31.289Z,1.40
2018-09-24T14:31:05.158Z,1.50
2018-09-24T14:33:38.769Z,1.40
2018-09-24T14:36:12.809Z,1.40
2018-09-24T14:38:46.687Z,1.50
2018-09-24T14:41:20.596Z,1.80
2018-09-24T14:43:55.219Z,1.57
2018-09-24T14:46:29.612Z,1.20
2018-09-24T14:49:03.384Z,1.43
2018-09-24T14:51:37.149Z,1.60
2018-09-24T14:54:10.933Z,1.87
2018-09-24T14:56:44.766Z,1.33
2018-09-24T14:59:18.497Z,1.40
2018-09-24T15:01:52.362Z,1.10
2018-09-24T15:04:26.225Z,1.53
2018-09-24T15:06:59.940Z,1.30
2018-09-24T15:09:33.731Z,2.03
2018-09-24T15:12:07.481Z,1.60
2018-09-24T15:14:41.238Z,1.20
2018-09-24T15:17:15.060Z,1.20
2018-09-24T15:19:49.190Z,2.00
2018-09-24T15:22:24.269Z,1.40
2018-09-24T15:24:58.104Z,1.73
2018-09-24T15:27:31.796Z,1.70
2018-09-24T15:30:06.145Z,1.70
2018-09-24T15:32:39.949Z,1.77
2018-09-24T15:35:14.401Z,1.70
2018-09-24T15:37:48.167Z,1.60
2018-09-24T15:40:23.070Z,1.20
2018-09-24T15:42:56.692Z,1.57
2018-09-24T15:45:30.444Z,1.17
2018-09-24T15:48:04.176Z,1.57
2018-09-24T15:50:37.870Z,1.57
2018-09-24T15:53:11.985Z,1.80
2018-09-24T15:55:45.753Z,1.60
2018-09-24T15:58:19.640Z,1.57
2018-09-24T16:00:54.552Z,3.00
2018-09-24T16:03:28.302Z,3.73
2018-09-24T16:06:01.901Z,2.20
2018-09-24T16:08:37.009Z,2.73
2018-09-24T16:11:10.902Z,1.20
2018-09-24T16:13:44.625Z,1.10
2018-09-24T16:16:18.413Z,1.10
2018-09-24T16:18:52.152Z,1.23
2018-09-24T16:21:25.913Z,1.40
2018-09-24T16:23:59.785Z,1.20
2018-09-24T16:26:33.520Z,1.47
2018-09-24T16:29:07.240Z,1.20
2018-09-24T16:31:40.913Z,1.47
2018-09-24T16:34:14.530Z,1.67
2018-09-24T16:36:49.333Z,2.30
2018-09-24T16:39:23.092Z,2.97
2018-09-24T16:41:56.897Z,4.00
2018-09-24T16:44:30.625Z,1.57
2018-09-24T16:47:04.460Z,1.07
2018-09-24T16:49:38.174Z,1.40
2018-09-24T16:52:12.110Z,1.80
2018-09-24T16:54:45.957Z,1.40
2018-09-24T16:57:19.811Z,1.60
2018-09-24T16:59:53.523Z,1.90
2018-09-24T17:02:27.431Z,1.80
2018-09-24T17:05:01.309Z,1.70
2018-09-24T17:07:35.031Z,1.80
2018-09-24T17:10:09.004Z,1.80
2018-09-24T17:12:42.810Z,2.40
2018-09-24T17:15:16.505Z,1.70
2018-09-24T17:17:50.322Z,1.87
2018-09-24T17:20:24.238Z,1.90
2018-09-24T17:22:58.057Z,1.70
2018-09-24T17:25:31.833Z,2.10
2018-09-24T17:28:05.547Z,2.37
2018-09-24T17:30:39.321Z,1.50
2018-09-24T17:33:13.086Z,1.70
2018-09-24T17:35:46.854Z,1.90
2018-09-24T17:38:20.668Z,1.87
2018-09-24T17:40:54.481Z,1.30
2018-09-24T17:43:28.281Z,1.40
2018-09-24T17:46:01.909Z,1.30
2018-09-24T17:48:35.810Z,1.60
2018-09-24T17:51:09.557Z,3.03
2018-09-24T17:53:43.386Z,2.90
2018-09-24T17:56:17.216Z,1.60
2018-09-24T17:58:50.897Z,1.83
2018-09-24T18:01:24.725Z,1.50
2018-09-24T18:03:59.232Z,1.50
2018-09-24T18:06:33.198Z,1.90
2018-09-24T18:09:06.880Z,1.63
2018-09-24T18:11:40.741Z,1.70
2018-09-24T18:14:14.554Z,2.97
2018-09-24T18:16:48.295Z,1.60
2018-09-24T18:19:22.104Z,1.93
2018-09-24T18:21:55.866Z,2.30
2018-09-24T18:24:29.574Z,1.93
2018-09-24T18:27:03.800Z,2.40
2018-09-24T18:29:37.547Z,1.80
2018-09-24T18:32:11.208Z,1.77
2018-09-24T18:34:45.100Z,2.23
2018-09-24T18:37:18.926Z,2.00
2018-09-24T18:39:52.716Z,1.80
2018-09-24T18:42:26.504Z,1.90
2018-09-24T18:45:00.229Z,1.97
2018-09-24T18:47:33.953Z,1.80
2018-09-24T18:50:08.047Z,1.70
2018-09-24T18:52:41.735Z,1.80
2018-09-24T18:55:15.713Z,1.70
2018-09-24T18:57:49.350Z,2.00
2018-09-24T19:00:23.098Z,2.20
2018-09-24T19:02:56.897Z,3.60
2018-09-24T19:05:30.686Z,2.57
2018-09-24T19:08:04.503Z,3.50
2018-09-24T19:10:38.251Z,2.43
2018-09-24T19:13:12.138Z,2.43
2018-09-24T19:15:46.096Z,2.40
2018-09-24T19:18:19.722Z,2.77
2018-09-24T19:20:53.615Z,2.80
2018-09-24T19:23:27.172Z,2.03
2018-09-24T19:26:00.932Z,2.53
2018-09-24T19:28:34.649Z,2.00
2018-09-24T19:31:08.397Z,2.20
2018-09-24T19:33:42.288Z,2.10
2018-09-24T19:36:16.181Z,2.77
2018-09-24T19:38:50.020Z,2.70
2018-09-24T19:41:23.792Z,2.70
2018-09-24T19:43:57.712Z,2.70
2018-09-24T19:46:31.644Z,3.00
2018-09-24T19:49:05.547Z,2.50
2018-09-24T19:51:39.423Z,2.57
2018-09-24T19:54:13.238Z,2.60
2018-09-24T19:56:47.051Z,2.33
2018-09-24T19:59:20.985Z,2.23
2018-09-24T20:01:54.755Z,2.20
2018-09-24T20:04:28.504Z,2.80
2018-09-24T20:07:02.269Z,2.43
2018-09-24T20:09:36.656Z,2.40
2018-09-24T20:12:10.403Z,2.87
2018-09-24T20:14:44.143Z,2.27
2018-09-24T20:17:17.783Z,2.80
2018-09-24T20:19:51.628Z,3.23
2018-09-24T20:22:25.297Z,3.63
2018-09-24T20:24:59.691Z,3.07
2018-09-24T20:27:33.428Z,2.70
2018-09-24T20:30:07.261Z,2.60
2018-09-24T20:32:42.034Z,2.93
2018-09-24T20:35:15.723Z,2.30
2018-09-24T20:37:49.582Z,2.30
2018-09-24T20:40:23.381Z,2.70
2018-09-24T20:42:57.143Z,2.60
2018-09-24T20:45:30.817Z,2.83
2018-09-24T20:48:04.698Z,2.30
2018-09-24T20:50:38.481Z,2.40
2018-09-24T20:53:12.325Z,2.07
2018-09-24T20:55:46.200Z,2.50
2018-09-24T20:58:20.168Z,2.60
2018-09-24T21:00:53.873Z,2.50
2018-09-24T21:03:27.592Z,2.37
2018-09-24T21:06:01.341Z,2.50
2018-09-24T21:08:35.160Z,2.50
2018-09-24T21:11:08.840Z,3.20
2018-09-24T21:13:42.547Z,2.77
2018-09-24T21:16:16.268Z,1.93
2018-09-24T21:18:50.098Z,2.43
2018-09-24T21:21:24.505Z,2.93
2018-09-24T21:23:58.181Z,2.50
2018-09-24T21:26:32.034Z,2.30
2018-09-24T21:29:05.846Z,2.30
2018-09-24T21:31:39.556Z,2.80
2018-09-24T21:34:13.412Z,2.73
2018-09-24T21:36:47.060Z,2.43
2018-09-24T21:39:20.820Z,2.20
2018-09-24T21:41:54.698Z,2.37
2018-09-24T21:44:28.677Z,2.93
2018-09-24T21:47:02.494Z,2.57
2018-09-24T21:49:36.305Z,2.53
2018-09-24T21:52:10.022Z,2.90
2018-09-24T21:54:43.734Z,3.23
2018-09-24T21:57:17.508Z,2.50
2018-09-24T21:59:51.272Z,2.73
2018-09-24T22:02:25.008Z,3.20
2018-09-24T22:04:58.941Z,2.57
2018-09-24T22:07:32.846Z,3.50
2018-09-24T22:10:06.772Z,2.33
2018-09-24T22:12:40.540Z,2.80
2018-09-24T22:15:14.386Z,3.10
2018-09-24T22:17:48.145Z,2.87
2018-09-24T22:20:21.843Z,3.03
2018-09-24T22:22:55.672Z,3.33
2018-09-24T22:25:29.468Z,3.17
2018-09-24T22:28:03.360Z,2.87
2018-09-24T22:30:37.118Z,2.90
2018-09-24T22:33:10.898Z,2.63
2018-09-24T22:35:44.612Z,2.50
2018-09-24T22:38:18.391Z,2.50
2018-09-24T22:40:52.236Z,2.83
2018-09-24T22:43:26.019Z,2.83
2018-09-24T22:45:59.781Z,2.70
2018-09-24T22:48:33.632Z,2.60
2018-09-24T22:51:07.340Z,3.07
2018-09-24T22:53:41.161Z,2.43
2018-09-24T22:56:15.038Z,2.90
2018-09-24T22:58:48.700Z,3.17
2018-09-24T23:01:22.558Z,2.87
2018-09-24T23:03:56.271Z,2.60
2018-09-24T23:06:30.143Z,3.23
2018-09-24T23:09:03.898Z,2.97
2018-09-24T23:11:37.744Z,2.63
2018-09-24T23:14:11.558Z,2.87
2018-09-24T23:16:45.232Z,3.27
2018-09-24T23:19:18.840Z,2.70
2018-09-24T23:21:52.517Z,3.37
2018-09-24T23:24:26.209Z,3.33
2018-09-24T23:26:59.952Z,2.30
2018-09-24T23:29:33.693Z,3.10
2018-09-24T23:32:07.430Z,2.67
2018-09-24T23:34:41.148Z,2.83
2018-09-24T23:37:14.999Z,2.53
2018-09-24T23:39:48.733Z,2.93
2018-09-24T23:42:22.619Z,3.20
2018-09-24T23:44:56.180Z,2.50
2018-09-24T23:47:29.853Z,3.07
2018-09-24T23:50:03.775Z,3.33
2018-09-24T23:52:37.615Z,2.70
2018-09-24T23:55:11.358Z,2.80
2018-09-24T23:57:45.178Z,2.60
